Portada
METAR-TAF:

METAR-TAF

Aeroports :

El Salvador, El Salvador

latitud: 13-26N, longitud: 089-03W, altitud: 25 m

Observació

L'informe es va fer fa 30 minuts, a les 05:50 UTC
Vent 5 kt del Est
Temperatura 24°C
Humitat 94%
Pressió 1012 hPa
Visibilitat: 5000 m
Núvols disperses a una alçada de 1200 ft
Cel ennuvolat a una alçada de 3000 ft
pluja

METAR: MSLP 300550Z 08005KT 5000 RA SCT012 BKN030 24/23 Q1012 A2989 TEMPO 3000 SHRA

Hora: 00:20 (06:20 UTC)

Pronòstic

L'informe es va fer fa 2 hores i 55 minuts, a les 03:25 UTC
Pronòstic vàlid del 30 a les 06 UTC al 31 a les 06 UTC
Vent 10 kt del Est
Visibilitat: 5000 m
Cel ennuvolat a una alçada de 1300 ft
Cel ennuvolat a una alçada de 4300 ft
xàfecs de pluja
Evolucionant progressivament
l' 30 a les 06 UTC al 30 a les 07 UTC
Visibilitat: 2000 m
Cel ennuvolat a una alçada de 1000 ft
xàfecs de pluja

TAF: MSLP 300325Z 3006/3106 10010KT 5000 SHRA BKN013 BKN043 TX32/3018Z TN22/3012Z BECMG 3006/3007 2000 SHRA BKN010

Observacions i pronòstics meteorològics de més de 4000 aeroports (METAR i TAF).

Les estacions disponibles són els punts grocs i vermells al mapa.

Posi el ratolí al punt desitjat per veure el nom de l'estació.

Feu clic per veure les observacions i els pronòstics meteorològics.

Per canviar el mapa: feu clic els botons verds amb una creu de color negre per apropar; al botó verd amb un guió per allunyar la imatge; o en les fletxes verdes per a mapes adjacents.


METAR-TAF: